Flight Track Log - Related Links

Times and Time Zones

All times are in EDT time to prevent confusion due to time zone crossing. See the N45NS flight status page for this flight to view local times or setup timezone preferences in your user account.


Time Position Orientation Groundspeed Altitude Reporting Facility
EDT Latitude Longitude Course Direction KTS MPH feet Rate Location/Type
Tue 09:56:00 AM 40.6829 -80.8352 107° East  Level FlightAware Approximate
Tue 09:57:00 AM 40.6613 -80.7184 98° East  Level FlightAware Approximate
Tue 09:58:00 AM 40.6458 -80.5998 108° East  Level FlightAware Approximate
Tue 09:59:00 AM 40.6231 -80.4833 101° East  Level FlightAware Approximate
Tue 10:00:00 AM 40.6049 -80.3652 101° East  Level FlightAware Approximate
Tue 10:01:00 AM 40.5830 -80.2484 106° East  Level FlightAware Approximate
Tue 10:02:00 AM 40.5573 -80.1328 106° East  Level FlightAware Approximate
Tue 10:03:00 AM 40.5350 -80.0162 103° East  Level FlightAware Approximate
Tue 10:04:00 AM 40.5140 -79.8991 103° East  Level FlightAware Approximate
Tue 10:05:00 AM 40.4929 -79.7821 103° East  Level FlightAware Approximate
Tue 10:06:00 AM 40.4716 -79.6651 103° East  Level FlightAware Approximate
Tue 10:07:00 AM 40.4503 -79.5483 103° East  Level FlightAware Approximate
Tue 10:08:00 AM 40.4288 -79.4315 104° East  Level FlightAware Approximate
Tue 10:09:00 AM 40.4072 -79.3148 104° East  Level FlightAware Approximate
Tue 10:10:00 AM 40.3854 -79.1981 104° East  Level FlightAware Approximate
Tue 10:11:00 AM 40.3636 -79.0816 104° East  Level FlightAware Approximate
Tue 10:12:00 AM 40.3417 -78.9651 104° East  Level FlightAware Approximate
Tue 10:13:00 AM 40.3196 -78.8487 104° East  Level FlightAware Approximate
Tue 10:14:00 AM 40.3133 -78.7293 92° East  Level FlightAware Approximate
Tue 10:15:00 AM 40.3092 -78.6095 93° East  Level FlightAware Approximate
Tue 10:16:00 AM 40.3050 -78.4897 93° East  Level FlightAware Approximate
Tue 10:17:00 AM 40.3007 -78.3699 93° East  Level FlightAware Approximate
Tue 10:18:00 AM 40.3000 -78.2501 90° East  Level FlightAware Approximate
Tue 10:19:00 AM 40.3000 -78.1302 90° East  Level FlightAware Approximate
Tue 10:20:00 AM 40.3000 -78.0103 90° East  Level FlightAware Approximate
Tue 10:21:00 AM 40.3000 -77.8904 90° East  Level FlightAware Approximate
Tue 10:22:00 AM 40.3001 -77.7705 90° East  Level FlightAware Approximate
Tue 10:23:00 AM 40.3001 -77.6506 90° East  Level FlightAware Approximate
Tue 10:24:00 AM 40.3001 -77.5307 90° East  Level FlightAware Approximate
Tue 10:25:00 AM 40.3000 -77.4108 90° East  Level FlightAware Approximate
Tue 10:26:00 AM 40.3000 -77.2909 90° East  Level FlightAware Approximate
Tue 10:27:00 AM 40.3000 -77.1710 90° East  Level FlightAware Approximate
Tue 10:28:00 AM 40.2957 -77.0521 111° Southeast  Level FlightAware Approximate
Tue 10:29:00 AM 40.2622 -76.9406 111° Southeast  Level FlightAware Approximate
Tue 10:30:00 AM 40.2438 -76.8251 108° East  Level FlightAware Approximate
Tue 10:31:00 AM 40.2167 -76.7110 90° East  Level FlightAware Approximate
Tue 10:32:00 AM 40.1876 -76.5982 110° East  Level FlightAware Approximate
Tue 10:33:00 AM 40.1664 -76.4831 143° Southeast  Level FlightAware Approximate
Tue 10:34:00 AM 40.1370 -76.3757 101° East  Level FlightAware Approximate
Tue 10:35:00 AM 40.1111 -76.2612 108° East  Level FlightAware Approximate
Tue 10:36:00 AM 40.1000 -76.1439 90° East  Level FlightAware Approximate
Tue 10:37:00 AM 40.0985 -76.0246 102° East  Level FlightAware Approximate
Tue 10:38:00 AM 40.0833 -75.9072 90° East  Level FlightAware Approximate
Tue 10:39:00 AM 40.0833 -75.7877 90° East  Level FlightAware Approximate
Tue 10:40:00 AM 40.0561 -75.6788 123° Southeast  Level FlightAware Approximate
Tue 10:41:00 AM 40.0090 -75.5765 119° Southeast  Level FlightAware Approximate
Tue 10:42:00 AM 39.9672 -75.4731 128° Southeast  Level FlightAware Approximate
Tue 10:43:00 AM 39.9188 -75.3730 113° Southeast  Level FlightAware Approximate
Tue 10:44:00 AM 39.8795 -75.2655 118° Southeast  Level FlightAware Approximate
Tue 10:45:00 AM 39.8667 -75.2333 118° Southeast  Level FlightAware Approximate
Tue 10:46:00 AM 39.8722 -75.2409 118° Southeast  Level Estimated
Tue 10:47:00 AM 39.8722 -75.2409 118° Southeast  Level Estimated
Tue 10:48:00 AM 39.8722 -75.2409 118° Southeast  Level Estimated
Tue 10:49:00 AM 39.8722 -75.2409 118° Southeast  Level Estimated
Tue 10:50:00 AM 39.8722 -75.2409 118° Southeast  Level Estimated
Tue 10:51:00 AM 39.8722 -75.2409 118° Southeast  Level Estimated
Tue 10:52:00 AM 39.8722 -75.2409 118° Southeast  Level Estimated
Tue 10:53:00 AM 39.8722 -75.2409 118° Southeast  Level Estimated
Tue 10:54:00 AM 39.8722 -75.2409 118° Southeast  Level Estimated
Tue 10:55:00 AM 39.8722 -75.2409 118° Southeast  Level Estimated
Tue 10:56:00 AM 39.8722 -75.2409 118° Southeast  Level Estimated
Tue 10:57:00 AM 39.8722 -75.2409 118° Southeast  Level Estimated
Tue 10:58:00 AM 39.8722 -75.2409 118° Southeast  Level Estimated
Tue 10:59:00 AM 39.8722 -75.2409 118° Southeast  Level Estimated
Tue 11:00:00 AM 39.8722 -75.2409 118° Southeast  Level Estimated

Login

Don't have an account? Register now (free) for customized features, flight alerts, and more!